createdAt,value
2019-01-20T00:00:30.666Z,-0.54
2019-01-20T00:01:30.802Z,-0.57
2019-01-20T00:02:30.674Z,-0.56
2019-01-20T00:03:30.742Z,-0.53
2019-01-20T00:04:30.513Z,-0.47
2019-01-20T00:05:30.455Z,-0.56
2019-01-20T00:06:30.427Z,-0.54
2019-01-20T00:07:30.379Z,-0.54
2019-01-20T00:08:30.330Z,-0.52
2019-01-20T00:09:30.304Z,-0.53
2019-01-20T00:10:30.254Z,-0.56
2019-01-20T00:11:30.208Z,-0.57
2019-01-20T00:12:30.173Z,-0.57
2019-01-20T00:13:30.132Z,-0.61
2019-01-20T00:14:30.094Z,-0.54
2019-01-20T00:15:30.047Z,-0.62
2019-01-20T00:16:30.018Z,-0.64
2019-01-20T00:17:29.964Z,-0.56
2019-01-20T00:18:29.946Z,-0.68
2019-01-20T00:19:29.890Z,-0.56
2019-01-20T00:20:29.849Z,-0.65
2019-01-20T00:21:29.815Z,-0.67
2019-01-20T00:22:29.770Z,-0.67
2019-01-20T00:23:29.727Z,-0.67
2019-01-20T00:24:29.700Z,-0.62
2019-01-20T00:25:29.649Z,-0.65
2019-01-20T00:26:29.608Z,-0.65
2019-01-20T00:27:29.570Z,-0.70
2019-01-20T00:28:29.537Z,-0.64
2019-01-20T00:29:29.492Z,-0.68
2019-01-20T00:30:29.445Z,-0.68
2019-01-20T00:31:29.405Z,-0.71
2019-01-20T00:32:29.363Z,-0.67
2019-01-20T00:33:29.319Z,-0.70
2019-01-20T00:34:29.305Z,-0.72
2019-01-20T00:35:29.245Z,-0.67
2019-01-20T00:36:29.221Z,-0.67
2019-01-20T00:37:29.163Z,-0.72
2019-01-20T00:38:29.134Z,-0.70
2019-01-20T00:39:29.084Z,-0.68
2019-01-20T00:40:29.080Z,-0.72
2019-01-20T00:41:29.021Z,-0.68
2019-01-20T00:42:28.966Z,-0.72
2019-01-20T00:43:28.920Z,-0.70
2019-01-20T00:44:28.874Z,-0.68
2019-01-20T00:45:28.838Z,-0.70
2019-01-20T00:46:28.795Z,-0.68
2019-01-20T00:47:28.750Z,-0.67
2019-01-20T00:48:28.720Z,-0.68
2019-01-20T00:49:28.680Z,-0.77
2019-01-20T00:50:28.639Z,-0.78
2019-01-20T00:51:28.600Z,-0.77
2019-01-20T00:52:28.552Z,-0.80
2019-01-20T00:53:28.512Z,-0.75
2019-01-20T00:54:28.475Z,-0.74
2019-01-20T00:55:28.435Z,-0.74
2019-01-20T00:56:28.386Z,-0.80
2019-01-20T00:57:28.357Z,-0.82
2019-01-20T00:58:28.310Z,-0.80
2019-01-20T00:59:28.269Z,-0.82
2019-01-20T01:00:28.228Z,-0.80
2019-01-20T01:01:28.204Z,-0.83
2019-01-20T01:02:28.151Z,-0.82
2019-01-20T01:03:28.115Z,-0.83
2019-01-20T01:04:28.071Z,-0.86
2019-01-20T01:05:28.026Z,-0.78
2019-01-20T01:06:27.984Z,-0.77
2019-01-20T01:07:27.946Z,-0.80
2019-01-20T01:08:27.910Z,-0.89
2019-01-20T01:09:27.857Z,-0.82
2019-01-20T01:10:27.820Z,-0.80
2019-01-20T01:11:31.838Z,-0.90
2019-01-20T01:12:27.735Z,-0.90
2019-01-20T01:13:27.695Z,-0.83
2019-01-20T01:14:27.657Z,-0.94
2019-01-20T01:15:27.622Z,-0.89
2019-01-20T01:16:27.575Z,-0.83
2019-01-20T01:17:27.534Z,-0.94
2019-01-20T01:18:27.501Z,-0.89
2019-01-20T01:19:27.458Z,-0.91
2019-01-20T01:20:27.411Z,-0.85
2019-01-20T01:21:27.377Z,-0.86
2019-01-20T01:22:27.333Z,-0.89
2019-01-20T01:23:27.292Z,-0.89
2019-01-20T01:24:27.256Z,-0.91
2019-01-20T01:25:27.211Z,-0.89
2019-01-20T01:26:27.166Z,-0.91
2019-01-20T01:27:27.127Z,-0.99
2019-01-20T01:28:27.092Z,-0.89
2019-01-20T01:29:27.052Z,-0.86
2019-01-20T01:30:26.998Z,-0.89
2019-01-20T01:31:26.958Z,-0.89
2019-01-20T01:32:26.923Z,-0.91
2019-01-20T01:33:26.886Z,-0.94
2019-01-20T01:34:26.851Z,-0.99
2019-01-20T01:35:26.812Z,-0.96
2019-01-20T01:36:26.762Z,-1.01
2019-01-20T01:37:26.718Z,-0.94
2019-01-20T01:38:26.683Z,-0.99
2019-01-20T01:39:26.644Z,-0.93
2019-01-20T01:40:26.599Z,-1.04
2019-01-20T01:41:26.559Z,-0.99
2019-01-20T01:42:26.524Z,-0.91
2019-01-20T01:43:26.483Z,-1.02
2019-01-20T01:44:26.447Z,-0.90
2019-01-20T01:45:26.402Z,-0.89
2019-01-20T01:46:26.358Z,-0.93
2019-01-20T01:47:26.312Z,-0.86
2019-01-20T01:48:26.272Z,-0.97
2019-01-20T01:49:26.241Z,-0.91
2019-01-20T01:50:26.193Z,-0.93
2019-01-20T01:51:26.143Z,-0.93
2019-01-20T01:52:26.114Z,-0.90
2019-01-20T01:53:26.082Z,-0.93
2019-01-20T01:54:26.049Z,-0.96
2019-01-20T01:55:25.988Z,-1.04
2019-01-20T01:56:25.948Z,-0.96
2019-01-20T01:57:25.907Z,-1.01
2019-01-20T01:58:25.867Z,-0.96
2019-01-20T01:59:25.834Z,-1.02
2019-01-20T02:00:25.789Z,-1.25
2019-01-20T02:01:25.739Z,-1.20
2019-01-20T02:02:25.709Z,-1.27
2019-01-20T02:03:25.664Z,-1.15
2019-01-20T02:04:25.620Z,-1.22
2019-01-20T02:05:25.590Z,-1.08
2019-01-20T02:06:25.546Z,-1.15
2019-01-20T02:07:25.503Z,-1.15
2019-01-20T02:08:25.464Z,-1.17
2019-01-20T02:09:25.418Z,-1.22
2019-01-20T02:10:25.374Z,-1.20
2019-01-20T02:11:25.338Z,-1.09
2019-01-20T02:12:25.294Z,-1.19
2019-01-20T02:13:25.254Z,-1.19
2019-01-20T02:14:25.209Z,-1.22
2019-01-20T02:15:25.174Z,-1.22
2019-01-20T02:16:25.135Z,-1.19
2019-01-20T02:17:25.090Z,-1.22
2019-01-20T02:18:25.049Z,-1.17
2019-01-20T02:19:25.082Z,-1.33
2019-01-20T02:20:24.964Z,-1.29
2019-01-20T02:21:24.930Z,-1.33
2019-01-20T02:22:24.889Z,-1.25
2019-01-20T02:23:24.853Z,-1.35
2019-01-20T02:24:24.810Z,-1.37
2019-01-20T02:25:24.765Z,-1.33
2019-01-20T02:26:24.738Z,-1.27
2019-01-20T02:27:24.687Z,-1.27
2019-01-20T02:28:24.639Z,-1.33
2019-01-20T02:29:24.609Z,-1.26
2019-01-20T02:30:24.565Z,-1.26
2019-01-20T02:31:24.521Z,-1.22
2019-01-20T02:32:24.479Z,-1.29
2019-01-20T02:33:24.438Z,-1.23
2019-01-20T02:34:24.400Z,-1.27
2019-01-20T02:35:24.362Z,-1.23
2019-01-20T02:36:24.315Z,-1.22
2019-01-20T02:37:24.269Z,-1.27
2019-01-20T02:38:24.234Z,-1.30
2019-01-20T02:39:24.202Z,-1.26
2019-01-20T02:40:24.161Z,-1.27
2019-01-20T02:41:24.109Z,-1.32
2019-01-20T02:42:24.070Z,-1.26
2019-01-20T02:43:24.027Z,-1.27
2019-01-20T02:44:24.013Z,-1.30
2019-01-20T02:45:23.948Z,-1.25
2019-01-20T02:46:23.912Z,-1.27
2019-01-20T02:47:23.863Z,-1.26
2019-01-20T02:48:23.821Z,-1.37
2019-01-20T02:49:23.781Z,-1.32
2019-01-20T02:50:23.747Z,-1.38
2019-01-20T02:51:23.700Z,-1.38
2019-01-20T02:52:23.669Z,-1.30
2019-01-20T02:53:23.627Z,-1.27
2019-01-20T02:54:23.578Z,-1.40
2019-01-20T02:55:23.536Z,-1.46
2019-01-20T02:56:23.495Z,-1.41
2019-01-20T02:57:23.450Z,-1.41
2019-01-20T02:58:23.417Z,-1.41
2019-01-20T02:59:23.381Z,-1.44
2019-01-20T03:00:23.331Z,-1.48
2019-01-20T03:01:23.306Z,-1.46
2019-01-20T03:02:23.251Z,-1.44
2019-01-20T03:03:23.215Z,-1.53
2019-01-20T03:04:23.166Z,-1.46
2019-01-20T03:05:23.127Z,-1.53
2019-01-20T03:06:23.089Z,-1.46
2019-01-20T03:07:23.043Z,-1.47
2019-01-20T03:08:23.011Z,-1.44
2019-01-20T03:09:22.963Z,-1.46
2019-01-20T03:10:22.923Z,-1.47
2019-01-20T03:11:22.882Z,-1.53
2019-01-20T03:12:22.838Z,-1.48
2019-01-20T03:13:22.803Z,-1.56
2019-01-20T03:14:22.762Z,-1.59
2019-01-20T03:15:22.714Z,-1.62
2019-01-20T03:16:22.674Z,-1.61
2019-01-20T03:17:22.642Z,-1.65
2019-01-20T03:18:22.591Z,-1.53
2019-01-20T03:19:22.558Z,-1.56
2019-01-20T03:20:22.515Z,-1.64
2019-01-20T03:21:22.466Z,-1.64
2019-01-20T03:22:22.431Z,-1.56
2019-01-20T03:23:22.387Z,-1.59
2019-01-20T03:24:22.341Z,-1.66
2019-01-20T03:25:22.310Z,-1.65
2019-01-20T03:26:22.264Z,-1.64
2019-01-20T03:27:22.224Z,-1.61
2019-01-20T03:28:22.183Z,-1.66
2019-01-20T03:29:22.154Z,-1.66
2019-01-20T03:30:22.105Z,-1.71
2019-01-20T03:31:22.069Z,-1.68
2019-01-20T03:32:22.019Z,-1.66
2019-01-20T03:33:21.980Z,-1.65
2019-01-20T03:34:21.934Z,-1.64
2019-01-20T03:35:21.893Z,-1.69
2019-01-20T03:36:21.862Z,-1.64
2019-01-20T03:37:21.813Z,-1.65
2019-01-20T03:38:21.778Z,-1.72
2019-01-20T03:39:21.739Z,-1.64
2019-01-20T03:40:21.689Z,-1.72
2019-01-20T03:41:21.649Z,-1.65
2019-01-20T03:42:21.613Z,-1.80
2019-01-20T03:43:21.570Z,-1.68
2019-01-20T03:44:21.529Z,-1.74
2019-01-20T03:45:21.485Z,-1.83
2019-01-20T03:46:21.438Z,-1.89
2019-01-20T03:47:21.405Z,-1.71
2019-01-20T03:48:21.367Z,-1.86
2019-01-20T03:49:21.312Z,-1.71
2019-01-20T03:50:21.283Z,-1.79
2019-01-20T03:51:21.239Z,-1.79
2019-01-20T03:52:21.199Z,-1.79
2019-01-20T03:53:21.157Z,-1.83
2019-01-20T03:54:21.119Z,-1.86
2019-01-20T03:55:21.081Z,-1.80
2019-01-20T03:56:21.030Z,-1.84
2019-01-20T03:57:20.985Z,-1.84
2019-01-20T03:58:20.944Z,-1.79
2019-01-20T03:59:20.907Z,-1.83
2019-01-20T04:00:20.868Z,-1.86
2019-01-20T04:01:20.814Z,-1.83
2019-01-20T04:02:20.785Z,-1.84
2019-01-20T04:03:20.750Z,-1.83
2019-01-20T04:04:20.705Z,-1.86
2019-01-20T04:05:20.665Z,-1.86
2019-01-20T04:06:20.626Z,-1.84
2019-01-20T04:07:20.584Z,-1.90
2019-01-20T04:08:20.534Z,-1.84
2019-01-20T04:09:20.497Z,-1.84
2019-01-20T04:10:20.459Z,-1.92
2019-01-20T04:11:20.411Z,-1.84
2019-01-20T04:12:21.055Z,-1.86
2019-01-20T04:13:20.326Z,-1.97
2019-01-20T04:14:20.290Z,-1.95
2019-01-20T04:15:20.244Z,-1.89
2019-01-20T04:16:20.200Z,-1.80
2019-01-20T04:17:20.163Z,-1.97
2019-01-20T04:18:20.137Z,-1.95
2019-01-20T04:19:20.079Z,-1.92
2019-01-20T04:20:20.042Z,-1.87
2019-01-20T04:21:20.001Z,-1.97
2019-01-20T04:22:19.962Z,-1.95
2019-01-20T04:23:19.922Z,-2.01
2019-01-20T04:24:19.879Z,-1.94
2019-01-20T04:25:19.840Z,-1.92
2019-01-20T04:26:19.787Z,-1.92
2019-01-20T04:27:19.755Z,-2.01
2019-01-20T04:28:19.718Z,-1.95
2019-01-20T04:29:19.671Z,-2.04
2019-01-20T04:30:19.626Z,-1.94
2019-01-20T04:31:19.590Z,-1.95
2019-01-20T04:32:19.540Z,-2.05
2019-01-20T04:33:19.512Z,-2.05
2019-01-20T04:34:19.465Z,-2.05
2019-01-20T04:35:19.438Z,-2.04
2019-01-20T04:36:19.381Z,-1.97
2019-01-20T04:37:19.336Z,-2.01
2019-01-20T04:38:19.296Z,-2.01
2019-01-20T04:39:19.257Z,-2.02
2019-01-20T04:40:19.217Z,-2.12
2019-01-20T04:41:19.171Z,-2.05
2019-01-20T04:42:19.140Z,-2.07
2019-01-20T04:43:19.088Z,-2.04
2019-01-20T04:44:19.038Z,-2.08
2019-01-20T04:45:18.997Z,-2.08
2019-01-20T04:46:18.976Z,-2.10
2019-01-20T04:47:18.926Z,-2.08
2019-01-20T04:48:18.885Z,-2.16
2019-01-20T04:49:18.835Z,-2.10
2019-01-20T04:50:18.797Z,-2.13
2019-01-20T04:51:18.766Z,-2.12
2019-01-20T04:52:19.632Z,-2.13
2019-01-20T04:53:18.676Z,-2.10
2019-01-20T04:54:18.631Z,-2.18
2019-01-20T04:55:18.598Z,-2.16
2019-01-20T04:56:18.546Z,-2.12
2019-01-20T04:57:18.510Z,-2.04
2019-01-20T04:58:18.467Z,-2.10
2019-01-20T04:59:18.428Z,-2.08
2019-01-20T05:00:18.383Z,-2.15
2019-01-20T05:01:18.349Z,-2.07
2019-01-20T05:02:18.297Z,-2.18
2019-01-20T05:03:18.257Z,-2.16
2019-01-20T05:04:18.217Z,-2.16
2019-01-20T05:05:18.172Z,-2.15
2019-01-20T05:06:18.132Z,-2.22
2019-01-20T05:07:18.097Z,-2.22
2019-01-20T05:08:18.049Z,-2.25
2019-01-20T05:09:18.006Z,-2.26
2019-01-20T05:10:17.971Z,-2.26
2019-01-20T05:11:17.931Z,-2.25
2019-01-20T05:12:17.899Z,-2.26
2019-01-20T05:13:17.849Z,-2.25
2019-01-20T05:14:17.804Z,-2.26
2019-01-20T05:15:17.762Z,-2.23
2019-01-20T05:16:17.717Z,-2.18
2019-01-20T05:17:17.678Z,-2.19
2019-01-20T05:18:17.644Z,-2.26
2019-01-20T05:19:17.592Z,-2.15
2019-01-20T05:20:17.555Z,-2.28
2019-01-20T05:21:17.523Z,-2.21
2019-01-20T05:22:17.479Z,-2.28
2019-01-20T05:23:17.430Z,-2.21
2019-01-20T05:24:17.392Z,-2.25
2019-01-20T05:25:17.345Z,-2.18
2019-01-20T05:26:17.314Z,-2.15
2019-01-20T05:27:17.272Z,-2.21
2019-01-20T05:28:17.223Z,-2.22
2019-01-20T05:29:17.193Z,-2.23
2019-01-20T05:30:17.138Z,-2.19
2019-01-20T05:31:17.104Z,-2.26
2019-01-20T05:32:17.067Z,-2.23
2019-01-20T05:33:17.015Z,-2.21
2019-01-20T05:34:16.974Z,-2.22
2019-01-20T05:35:16.935Z,-2.26
2019-01-20T05:36:16.887Z,-2.37
2019-01-20T05:37:16.850Z,-2.37
2019-01-20T05:38:16.818Z,-2.34
2019-01-20T05:39:16.773Z,-2.32
2019-01-20T05:40:17.360Z,-2.38
2019-01-20T05:41:16.685Z,-2.40
2019-01-20T05:42:16.640Z,-2.32
2019-01-20T05:43:16.607Z,-2.32
2019-01-20T05:44:16.578Z,-2.37
2019-01-20T05:45:16.527Z,-2.35
2019-01-20T05:46:16.483Z,-2.26
2019-01-20T05:47:16.428Z,-2.34
2019-01-20T05:48:16.394Z,-2.37
2019-01-20T05:49:16.354Z,-2.26
2019-01-20T05:50:16.314Z,-2.34
2019-01-20T05:51:16.269Z,-2.32
2019-01-20T05:52:16.230Z,-2.30
2019-01-20T05:53:16.189Z,-2.30
2019-01-20T05:54:16.146Z,-2.32
2019-01-20T05:55:16.109Z,-2.32
2019-01-20T05:56:16.064Z,-2.32
2019-01-20T05:57:16.020Z,-2.28
2019-01-20T05:58:15.985Z,-2.40
2019-01-20T05:59:15.939Z,-2.32
2019-01-20T06:00:15.890Z,-2.38
2019-01-20T06:01:15.856Z,-2.28
2019-01-20T06:02:15.813Z,-2.30
2019-01-20T06:03:15.778Z,-2.34
2019-01-20T06:04:15.734Z,-2.35
2019-01-20T06:05:15.695Z,-2.41
2019-01-20T06:06:15.641Z,-2.38
2019-01-20T06:07:15.611Z,-2.35
2019-01-20T06:08:15.560Z,-2.35
2019-01-20T06:09:15.516Z,-2.35
2019-01-20T06:10:15.475Z,-2.35
2019-01-20T06:11:15.436Z,-2.35
2019-01-20T06:12:15.394Z,-2.28
2019-01-20T06:13:15.362Z,-2.28
2019-01-20T06:14:15.310Z,-2.42
2019-01-20T06:15:15.294Z,-2.38
2019-01-20T06:16:15.228Z,-2.42
2019-01-20T06:17:15.192Z,-2.50
2019-01-20T06:18:15.143Z,-2.41
2019-01-20T06:19:15.107Z,-2.50
2019-01-20T06:20:15.057Z,-2.41
2019-01-20T06:21:15.025Z,-2.52
2019-01-20T06:22:14.976Z,-2.38
2019-01-20T06:23:14.935Z,-2.38
2019-01-20T06:24:14.900Z,-2.40
2019-01-20T06:25:14.856Z,-2.47
2019-01-20T06:26:14.837Z,-2.41
2019-01-20T06:27:14.774Z,-2.38
2019-01-20T06:28:14.727Z,-2.42
2019-01-20T06:29:14.696Z,-2.38
2019-01-20T06:30:14.647Z,-2.41
2019-01-20T06:31:14.603Z,-2.41
2019-01-20T06:32:14.566Z,-2.55
2019-01-20T06:33:14.513Z,-2.38
2019-01-20T06:34:14.477Z,-2.42
2019-01-20T06:35:14.444Z,-2.38
2019-01-20T06:36:14.405Z,-2.52
2019-01-20T06:37:14.358Z,-2.48
2019-01-20T06:38:14.317Z,-2.53
2019-01-20T06:39:14.275Z,-2.44
2019-01-20T06:40:14.236Z,-2.41
2019-01-20T06:41:14.192Z,-2.52
2019-01-20T06:42:14.142Z,-2.38
2019-01-20T06:43:14.108Z,-2.42
2019-01-20T06:44:14.067Z,-2.40
2019-01-20T06:45:14.020Z,-2.50
2019-01-20T06:46:13.973Z,-2.50
2019-01-20T06:47:13.934Z,-2.53
2019-01-20T06:48:13.903Z,-2.38
2019-01-20T06:49:13.856Z,-2.47
2019-01-20T06:50:13.822Z,-2.52
2019-01-20T06:51:13.778Z,-2.50
2019-01-20T06:52:13.731Z,-2.45
2019-01-20T06:53:13.683Z,-2.37
2019-01-20T06:54:13.641Z,-2.56
2019-01-20T06:55:13.602Z,-2.45
2019-01-20T06:56:13.564Z,-2.45
2019-01-20T06:57:13.517Z,-2.55
2019-01-20T06:58:13.477Z,-2.63
2019-01-20T06:59:13.442Z,-2.63
2019-01-20T07:00:13.402Z,-2.59
2019-01-20T07:01:13.358Z,-2.58
2019-01-20T07:02:13.316Z,-2.55
2019-01-20T07:03:13.279Z,-2.53
2019-01-20T07:04:13.226Z,-2.62
2019-01-20T07:05:13.193Z,-2.63
2019-01-20T07:06:13.139Z,-2.55
2019-01-20T07:07:13.104Z,-2.47
2019-01-20T07:08:13.065Z,-2.59
2019-01-20T07:09:13.027Z,-2.59
2019-01-20T07:10:12.987Z,-2.47
2019-01-20T07:11:12.937Z,-2.59
2019-01-20T07:12:12.900Z,-2.62
2019-01-20T07:13:12.862Z,-2.52
2019-01-20T07:14:12.804Z,-2.47
2019-01-20T07:15:12.775Z,-2.65
2019-01-20T07:16:12.722Z,-2.65
2019-01-20T07:17:12.688Z,-2.47
2019-01-20T07:18:12.648Z,-2.56
2019-01-20T07:19:12.603Z,-2.56
2019-01-20T07:20:12.564Z,-2.62
2019-01-20T07:21:12.524Z,-2.65
2019-01-20T07:22:12.481Z,-2.56
2019-01-20T07:23:12.435Z,-2.47
2019-01-20T07:24:12.390Z,-2.50
2019-01-20T07:25:12.355Z,-2.45
2019-01-20T07:26:12.318Z,-2.55
2019-01-20T07:27:12.278Z,-2.52
2019-01-20T07:28:12.228Z,-2.53
2019-01-20T07:29:12.187Z,-2.48
2019-01-20T07:30:12.145Z,-2.53
2019-01-20T07:31:12.105Z,-2.58
2019-01-20T07:32:12.056Z,-2.50
2019-01-20T07:33:12.020Z,-2.59
2019-01-20T07:34:11.975Z,-2.50
2019-01-20T07:35:11.939Z,-2.59
2019-01-20T07:36:11.891Z,-2.55
2019-01-20T07:37:11.847Z,-2.62
2019-01-20T07:38:11.809Z,-2.48
2019-01-20T07:39:11.776Z,-2.55
2019-01-20T07:40:11.726Z,-2.44
2019-01-20T07:41:11.680Z,-2.55
2019-01-20T07:42:11.651Z,-2.53
2019-01-20T07:43:16.780Z,-2.47
2019-01-20T07:44:11.555Z,-2.55
2019-01-20T07:45:11.519Z,-2.50
2019-01-20T07:46:11.485Z,-2.47
2019-01-20T07:47:11.430Z,-2.48
2019-01-20T07:48:11.390Z,-2.45
2019-01-20T07:49:11.355Z,-2.41
2019-01-20T07:50:11.310Z,-2.44
2019-01-20T07:51:11.280Z,-2.52
2019-01-20T07:52:11.230Z,-2.37
2019-01-20T07:53:11.180Z,-2.44
2019-01-20T07:54:11.149Z,-2.48
2019-01-20T07:55:11.163Z,-2.41
2019-01-20T07:56:11.065Z,-2.44
2019-01-20T07:57:11.024Z,-2.35
2019-01-20T07:58:10.976Z,-2.41
2019-01-20T07:59:10.935Z,-2.52
2019-01-20T08:00:10.891Z,-2.40
2019-01-20T08:01:10.853Z,-2.50
2019-01-20T08:02:10.807Z,-2.65
2019-01-20T08:03:10.770Z,-2.63
2019-01-20T08:04:10.726Z,-2.53
2019-01-20T08:05:10.682Z,-2.58
2019-01-20T08:06:10.646Z,-2.50
2019-01-20T08:07:10.605Z,-2.59
2019-01-20T08:08:10.563Z,-2.59
2019-01-20T08:09:10.527Z,-2.55
2019-01-20T08:10:10.472Z,-2.59
2019-01-20T08:11:10.427Z,-2.65
2019-01-20T08:12:10.395Z,-2.53
2019-01-20T08:13:10.355Z,-2.48
2019-01-20T08:14:10.318Z,-2.40
2019-01-20T08:15:10.268Z,-2.38
2019-01-20T08:16:10.226Z,-2.40
2019-01-20T08:17:11.351Z,-2.32
2019-01-20T08:18:10.153Z,-2.32
2019-01-20T08:19:10.105Z,-2.35
2019-01-20T08:20:10.053Z,-2.38
2019-01-20T08:21:10.016Z,-2.30
2019-01-20T08:22:09.972Z,-2.28
2019-01-20T08:23:09.935Z,-2.28
2019-01-20T08:24:09.912Z,-2.15
2019-01-20T08:25:09.895Z,-2.21
2019-01-20T08:26:09.808Z,-2.25
2019-01-20T08:27:09.768Z,-2.21
2019-01-20T08:28:09.754Z,-2.22
2019-01-20T08:29:09.683Z,-2.22
2019-01-20T08:30:09.657Z,-2.23
2019-01-20T08:31:09.611Z,-2.15
2019-01-20T08:32:09.551Z,-2.18
2019-01-20T08:33:09.517Z,-2.18
2019-01-20T08:34:09.482Z,-2.13
2019-01-20T08:35:09.442Z,-2.18
2019-01-20T08:36:09.397Z,-2.12
2019-01-20T08:37:09.346Z,-2.07
2019-01-20T08:38:09.312Z,-2.01
2019-01-20T08:39:09.284Z,-2.02
2019-01-20T08:40:09.232Z,-2.02
2019-01-20T08:41:09.196Z,-2.04
2019-01-20T08:42:09.143Z,-2.00
2019-01-20T08:43:09.112Z,-1.95
2019-01-20T08:44:09.065Z,-1.92
2019-01-20T08:45:09.018Z,-1.92
2019-01-20T08:46:08.975Z,-1.83
2019-01-20T08:47:08.943Z,-1.84
2019-01-20T08:48:08.909Z,-1.90
2019-01-20T08:49:08.893Z,-1.87
2019-01-20T08:50:08.825Z,-1.86
2019-01-20T08:51:08.783Z,-1.80
2019-01-20T08:52:08.737Z,-1.74
2019-01-20T08:53:08.697Z,-1.68
2019-01-20T08:54:08.664Z,-1.80
2019-01-20T08:55:08.657Z,-1.69
2019-01-20T08:56:08.576Z,-1.66
2019-01-20T08:57:08.529Z,-1.66
2019-01-20T08:58:08.484Z,-1.64
2019-01-20T08:59:08.444Z,-1.61
2019-01-20T09:00:08.403Z,-1.64
2019-01-20T09:01:08.358Z,-1.58
2019-01-20T09:02:08.318Z,-1.59
2019-01-20T09:03:08.290Z,-1.58
2019-01-20T09:04:08.254Z,-1.46
2019-01-20T09:05:08.208Z,-1.48
2019-01-20T09:06:08.172Z,-1.41
2019-01-20T09:07:08.110Z,-1.46
2019-01-20T09:08:08.078Z,-1.38
2019-01-20T09:09:08.034Z,-1.35
2019-01-20T09:10:07.997Z,-1.37
2019-01-20T09:11:07.945Z,-1.40
2019-01-20T09:12:07.910Z,-1.30
2019-01-20T09:13:07.872Z,-1.19
2019-01-20T09:14:07.820Z,-1.29
2019-01-20T09:15:07.790Z,-1.25
2019-01-20T09:16:07.746Z,-1.23
2019-01-20T09:17:07.700Z,-1.19
2019-01-20T09:18:07.655Z,-1.23
2019-01-20T09:19:07.624Z,-1.08
2019-01-20T09:20:07.584Z,-1.14
2019-01-20T09:21:07.541Z,-1.07
2019-01-20T09:22:07.505Z,-0.97
2019-01-20T09:23:07.459Z,-0.94
2019-01-20T09:24:07.424Z,-0.86
2019-01-20T09:25:07.370Z,-0.99
2019-01-20T09:26:07.335Z,-0.90
2019-01-20T09:27:07.300Z,-0.89
2019-01-20T09:28:07.256Z,-0.85
2019-01-20T09:29:07.212Z,-0.75
2019-01-20T09:30:07.180Z,-0.77
2019-01-20T09:31:07.137Z,-0.71
2019-01-20T09:32:07.085Z,-0.75
2019-01-20T09:33:07.046Z,-0.75
2019-01-20T09:34:07.009Z,-0.67
2019-01-20T09:35:06.975Z,-0.64
2019-01-20T09:36:06.930Z,-0.64
2019-01-20T09:37:06.886Z,-0.70
2019-01-20T09:38:06.861Z,-0.70
2019-01-20T09:39:06.805Z,-0.65
2019-01-20T09:40:06.763Z,-0.59
2019-01-20T09:41:06.737Z,-0.49
2019-01-20T09:42:06.692Z,-0.36
2019-01-20T09:43:06.670Z,-0.43
2019-01-20T09:44:06.611Z,-0.28
2019-01-20T09:45:06.562Z,-0.31
2019-01-20T09:46:06.531Z,-0.26
2019-01-20T09:47:06.480Z,-0.36
2019-01-20T09:48:06.445Z,-0.29
2019-01-20T09:49:06.401Z,-0.20
2019-01-20T09:50:06.365Z,-0.17
2019-01-20T09:51:06.320Z,-0.17
2019-01-20T09:52:06.276Z,-0.15
2019-01-20T09:53:06.246Z,-0.07
2019-01-20T09:54:06.212Z,0.12
2019-01-20T09:55:06.165Z,0.28
2019-01-20T09:56:06.115Z,0.80
2019-01-20T09:57:06.082Z,1.35
2019-01-20T09:58:06.036Z,1.89
2019-01-20T09:59:06.014Z,2.38
2019-01-20T10:00:05.966Z,2.82
2019-01-20T10:01:05.950Z,3.21
2019-01-20T10:02:05.888Z,3.83
2019-01-20T10:03:05.862Z,4.19
2019-01-20T10:04:05.822Z,4.82
2019-01-20T10:05:05.793Z,5.07
2019-01-20T10:06:05.752Z,5.43
2019-01-20T10:07:05.717Z,5.90
2019-01-20T10:08:05.685Z,6.11
2019-01-20T10:09:05.646Z,6.74
2019-01-20T10:10:05.614Z,7.02
2019-01-20T10:11:05.623Z,7.35
2019-01-20T10:12:05.561Z,7.77
2019-01-20T10:13:05.517Z,7.94
2019-01-20T10:14:05.486Z,8.15
2019-01-20T10:15:05.447Z,8.44
2019-01-20T10:16:05.432Z,8.36
2019-01-20T10:17:05.399Z,8.41
2019-01-20T10:18:05.363Z,8.42
2019-01-20T10:19:05.338Z,8.91
2019-01-20T10:20:05.297Z,9.25
2019-01-20T10:21:05.262Z,9.39
2019-01-20T10:22:05.229Z,9.73
2019-01-20T10:23:05.207Z,10.12
2019-01-20T10:24:05.172Z,10.28
2019-01-20T10:25:05.145Z,10.60
2019-01-20T10:26:05.133Z,10.82
2019-01-20T10:27:05.099Z,10.87
2019-01-20T10:28:05.055Z,11.07
2019-01-20T10:29:05.019Z,11.22
2019-01-20T10:30:04.985Z,11.47
2019-01-20T10:31:05.992Z,11.65
2019-01-20T10:32:04.939Z,11.72
2019-01-20T10:33:04.903Z,11.66
2019-01-20T10:34:04.901Z,11.77
2019-01-20T10:35:04.848Z,12.04
2019-01-20T10:36:04.820Z,12.29
2019-01-20T10:37:04.793Z,12.40
2019-01-20T10:38:04.759Z,12.58
2019-01-20T10:39:04.733Z,12.67
2019-01-20T10:40:04.718Z,12.79
2019-01-20T10:41:04.677Z,12.93
2019-01-20T10:42:04.662Z,13.11
2019-01-20T10:43:04.627Z,13.22
2019-01-20T10:44:04.600Z,13.15
2019-01-20T10:45:04.568Z,13.12
2019-01-20T10:46:04.529Z,13.28
2019-01-20T10:47:04.515Z,13.09
2019-01-20T10:48:04.481Z,13.25
2019-01-20T10:49:05.331Z,13.19
2019-01-20T10:50:04.434Z,13.16
2019-01-20T10:51:04.414Z,13.18
2019-01-20T10:52:04.380Z,12.98
2019-01-20T10:53:04.351Z,12.61
2019-01-20T10:54:04.318Z,12.65
2019-01-20T10:55:04.294Z,12.61
2019-01-20T10:56:04.255Z,12.62
2019-01-20T10:57:04.234Z,12.65
2019-01-20T10:58:04.208Z,12.87
2019-01-20T10:59:04.170Z,12.95
2019-01-20T11:00:04.156Z,13.03
2019-01-20T11:01:04.118Z,13.19
2019-01-20T11:02:04.094Z,13.16
2019-01-20T11:03:04.056Z,13.15
2019-01-20T11:04:04.035Z,13.11
2019-01-20T11:05:03.996Z,13.30
2019-01-20T11:06:03.980Z,13.31
2019-01-20T11:07:03.949Z,13.59
2019-01-20T11:08:03.924Z,13.72
2019-01-20T11:09:03.917Z,13.78
2019-01-20T11:10:03.870Z,13.87
2019-01-20T11:11:03.841Z,14.07
2019-01-20T11:12:03.809Z,14.17
2019-01-20T11:13:03.789Z,14.17
2019-01-20T11:14:09.464Z,13.78
2019-01-20T11:15:03.731Z,13.52
2019-01-20T11:16:03.695Z,13.72
2019-01-20T11:17:03.674Z,13.86
2019-01-20T11:18:03.639Z,13.87
2019-01-20T11:19:03.614Z,13.90
2019-01-20T11:20:03.586Z,13.00
2019-01-20T11:21:03.566Z,13.60
2019-01-20T11:22:03.539Z,13.78
2019-01-20T11:23:03.508Z,14.07
2019-01-20T11:24:03.482Z,14.30
2019-01-20T11:25:03.444Z,14.54
2019-01-20T11:26:03.493Z,14.68
2019-01-20T11:27:03.404Z,14.53
2019-01-20T11:28:03.380Z,14.79
2019-01-20T11:29:03.338Z,14.91
2019-01-20T11:30:03.322Z,14.60
2019-01-20T11:31:03.284Z,14.70
2019-01-20T11:32:03.262Z,14.73
2019-01-20T11:33:03.236Z,14.84
2019-01-20T11:34:03.226Z,14.91
2019-01-20T11:35:03.180Z,15.15
2019-01-20T11:36:03.151Z,15.22
2019-01-20T11:37:03.126Z,15.36
2019-01-20T11:38:03.102Z,15.44
2019-01-20T11:39:03.079Z,14.72
2019-01-20T11:40:03.051Z,15.07
2019-01-20T11:41:03.032Z,15.25
2019-01-20T11:42:02.995Z,15.10
2019-01-20T11:43:02.969Z,15.10
2019-01-20T11:44:02.939Z,15.10
2019-01-20T11:45:02.913Z,15.36
2019-01-20T11:46:02.882Z,15.24
2019-01-20T11:47:02.856Z,15.33
2019-01-20T11:48:02.829Z,15.21
2019-01-20T11:49:02.806Z,14.86
2019-01-20T11:50:02.782Z,15.18
2019-01-20T11:51:02.748Z,15.43
2019-01-20T11:52:02.725Z,15.31
2019-01-20T11:53:02.692Z,15.55
2019-01-20T11:54:02.672Z,15.67
2019-01-20T11:55:02.637Z,15.70
2019-01-20T11:56:02.616Z,15.79
2019-01-20T11:57:02.588Z,15.14
2019-01-20T11:58:02.564Z,14.44
2019-01-20T11:59:02.536Z,12.62
2019-01-20T12:00:02.518Z,13.15
2019-01-20T12:01:02.472Z,13.09
2019-01-20T12:02:02.457Z,13.74
2019-01-20T12:03:02.426Z,14.22
2019-01-20T12:04:02.400Z,14.37
2019-01-20T12:05:02.374Z,13.60
2019-01-20T12:06:02.353Z,13.75
2019-01-20T12:07:02.309Z,14.20
2019-01-20T12:08:02.286Z,14.44
2019-01-20T12:09:02.271Z,14.72
2019-01-20T12:10:02.242Z,15.06
2019-01-20T12:11:02.210Z,15.11
2019-01-20T12:12:02.184Z,14.32
2019-01-20T12:13:02.156Z,14.55
2019-01-20T12:14:02.122Z,14.77
2019-01-20T12:15:02.100Z,14.91
2019-01-20T12:16:02.063Z,14.81
2019-01-20T12:17:02.049Z,15.03
2019-01-20T12:18:02.014Z,15.09
2019-01-20T12:19:01.992Z,15.22
2019-01-20T12:20:01.970Z,15.51
2019-01-20T12:21:01.937Z,15.43
2019-01-20T12:22:01.918Z,15.62
2019-01-20T12:23:01.880Z,15.62
2019-01-20T12:24:01.859Z,15.59
2019-01-20T12:25:01.828Z,15.65
2019-01-20T12:26:01.811Z,15.52
2019-01-20T12:27:01.774Z,15.54
2019-01-20T12:28:01.749Z,15.19
2019-01-20T12:29:01.726Z,14.70
2019-01-20T12:30:01.698Z,14.32
2019-01-20T12:31:01.670Z,13.63
2019-01-20T12:32:01.634Z,13.62
2019-01-20T12:33:01.610Z,13.68
2019-01-20T12:34:01.585Z,12.64
2019-01-20T12:35:01.563Z,13.11
2019-01-20T12:36:01.528Z,13.72
2019-01-20T12:37:01.510Z,14.07
2019-01-20T12:38:01.485Z,14.40
2019-01-20T12:39:01.455Z,14.66
2019-01-20T12:40:01.442Z,14.88
2019-01-20T12:41:01.391Z,12.68
2019-01-20T12:42:01.365Z,11.41
2019-01-20T12:43:01.349Z,10.44
2019-01-20T12:44:01.321Z,10.51
2019-01-20T12:45:01.275Z,11.07
2019-01-20T12:46:01.254Z,12.04
2019-01-20T12:47:01.230Z,12.61
2019-01-20T12:48:01.197Z,12.20
2019-01-20T12:49:01.171Z,10.60
2019-01-20T12:50:01.145Z,9.79
2019-01-20T12:51:01.105Z,10.07
2019-01-20T12:52:01.080Z,10.01
2019-01-20T12:53:01.074Z,10.75